sensor_id;sensor_type;location;lat;lon;timestamp;pressure;altitude;pressure_sealevel;temperature;humidity
30714;BME280;17465;47.934;33.430;2023-04-30T00:00:10;57303.95;;;-140.43;100.00
30714;BME280;17465;47.934;33.430;2023-04-30T00:05:20;57320.90;;;-140.43;100.00
30714;BME280;17465;47.934;33.430;2023-04-30T00:07:58;57320.90;;;-140.43;100.00
30714;BME280;17465;47.934;33.430;2023-04-30T00:10:28;57311.37;;;-140.43;100.00
30714;BME280;17465;47.934;33.430;2023-04-30T00:12:58;57325.14;;;-140.43;100.00
30714;BME280;17465;47.934;33.430;2023-04-30T00:15:36;57317.72;;;-140.43;100.00
30714;BME280;17465;47.934;33.430;2023-04-30T00:18:22;57317.72;;;-140.43;100.00
30714;BME280;17465;47.934;33.430;2023-04-30T00:23:48;57323.02;;;-140.43;100.00
30714;BME280;17465;47.934;33.430;2023-04-30T00:26:18;57323.02;;;-140.43;100.00
30714;BME280;17465;47.934;33.430;2023-04-30T00:28:49;57317.72;;;-140.43;100.00
30714;BME280;17465;47.934;33.430;2023-04-30T00:31:19;57330.43;;;-140.43;100.00
30714;BME280;17465;47.934;33.430;2023-04-30T00:33:50;57330.43;;;-140.43;100.00
30714;BME280;17465;47.934;33.430;2023-04-30T00:36:20;57293.36;;;-140.43;100.00
30714;BME280;17465;47.934;33.430;2023-04-30T00:38:50;57329.37;;;-140.43;100.00
30714;BME280;17465;47.934;33.430;2023-04-30T00:41:22;57303.95;;;-140.43;100.00
30714;BME280;17465;47.934;33.430;2023-04-30T00:43:52;57335.73;;;-140.43;100.00
30714;BME280;17465;47.934;33.430;2023-04-30T00:46:23;57302.89;;;-140.43;100.00
30714;BME280;17465;47.934;33.430;2023-04-30T00:48:53;57308.19;;;-140.43;100.00
30714;BME280;17465;47.934;33.430;2023-04-30T00:51:26;57329.37;;;-140.43;100.00
30714;BME280;17465;47.934;33.430;2023-04-30T00:54:00;57310.31;;;-140.43;100.00
30714;BME280;17465;47.934;33.430;2023-04-30T00:56:31;57314.55;;;-140.43;100.00
30714;BME280;17465;47.934;33.430;2023-04-30T00:59:02;57330.43;;;-140.43;100.00
30714;BME280;17465;47.934;33.430;2023-04-30T01:01:32;57295.48;;;-140.43;100.00
30714;BME280;17465;47.934;33.430;2023-04-30T01:04:04;57316.66;;;-140.43;100.00
30714;BME280;17465;47.934;33.430;2023-04-30T01:06:37;57320.90;;;-140.43;100.00
30714;BME280;17465;47.934;33.430;2023-04-30T01:09:09;57327.25;;;-140.43;100.00
30714;BME280;17465;47.934;33.430;2023-04-30T01:17:41;57323.02;;;-140.43;100.00
30714;BME280;17465;47.934;33.430;2023-04-30T01:20:10;57337.84;;;-140.43;100.00
30714;BME280;17465;47.934;33.430;2023-04-30T01:22:45;57300.78;;;-140.43;100.00
30714;BME280;17465;47.934;33.430;2023-04-30T01:25:28;57300.78;;;-140.43;100.00
30714;BME280;17465;47.934;33.430;2023-04-30T01:28:16;57327.25;;;-140.43;100.00
30714;BME280;17465;47.934;33.430;2023-04-30T01:30:47;57334.67;;;-140.43;100.00
30714;BME280;17465;47.934;33.430;2023-04-30T01:33:18;57325.14;;;-140.43;100.00
30714;BME280;17465;47.934;33.430;2023-04-30T01:35:57;57315.61;;;-140.43;100.00
30714;BME280;17465;47.934;33.430;2023-04-30T01:39:01;57314.55;;;-140.43;100.00
30714;BME280;17465;47.934;33.430;2023-04-30T01:47:40;57308.19;;;-140.43;100.00
30714;BME280;17465;47.934;33.430;2023-04-30T01:53:21;57291.25;;;-140.43;100.00
30714;BME280;17465;47.934;33.430;2023-04-30T01:58:52;57324.07;;;-140.43;100.00
30714;BME280;17465;47.934;33.430;2023-04-30T02:01:27;57311.37;;;-140.43;100.00
30714;BME280;17465;47.934;33.430;2023-04-30T02:03:58;57316.66;;;-140.43;100.00
30714;BME280;17465;47.934;33.430;2023-04-30T02:06:29;57346.32;;;-140.43;100.00
30714;BME280;17465;47.934;33.430;2023-04-30T02:09:00;57319.84;;;-140.43;100.00
30714;BME280;17465;47.934;33.430;2023-04-30T02:11:31;57316.66;;;-140.43;100.00
30714;BME280;17465;47.934;33.430;2023-04-30T02:14:02;57306.07;;;-140.43;100.00
30714;BME280;17465;47.934;33.430;2023-04-30T02:16:33;57307.13;;;-140.43;100.00
30714;BME280;17465;47.934;33.430;2023-04-30T02:19:03;57317.72;;;-140.43;100.00
30714;BME280;17465;47.934;33.430;2023-04-30T02:21:35;57317.72;;;-140.43;100.00
30714;BME280;17465;47.934;33.430;2023-04-30T02:24:06;57330.43;;;-140.43;100.00
30714;BME280;17465;47.934;33.430;2023-04-30T02:26:38;57302.89;;;-140.43;100.00
30714;BME280;17465;47.934;33.430;2023-04-30T02:29:08;57307.13;;;-140.43;100.00
30714;BME280;17465;47.934;33.430;2023-04-30T02:31:39;57323.02;;;-140.43;100.00
30714;BME280;17465;47.934;33.430;2023-04-30T02:34:09;57323.02;;;-140.43;100.00
30714;BME280;17465;47.934;33.430;2023-04-30T02:36:40;57310.31;;;-140.43;100.00
30714;BME280;17465;47.934;33.430;2023-04-30T02:39:10;57315.61;;;-140.43;100.00
30714;BME280;17465;47.934;33.430;2023-04-30T02:41:41;57315.61;;;-140.43;100.00
30714;BME280;17465;47.934;33.430;2023-04-30T02:44:12;57316.66;;;-140.43;100.00
30714;BME280;17465;47.934;33.430;2023-04-30T02:46:42;57315.61;;;-140.43;100.00
30714;BME280;17465;47.934;33.430;2023-04-30T02:49:13;57311.37;;;-140.43;100.00
30714;BME280;17465;47.934;33.430;2023-04-30T02:51:43;57306.07;;;-140.43;100.00
30714;BME280;17465;47.934;33.430;2023-04-30T02:54:14;57289.13;;;-140.43;100.00
30714;BME280;17465;47.934;33.430;2023-04-30T02:56:45;57312.43;;;-140.43;100.00
30714;BME280;17465;47.934;33.430;2023-04-30T02:59:19;57301.84;;;-140.43;100.00
30714;BME280;17465;47.934;33.430;2023-04-30T03:01:50;57310.31;;;-140.43;100.00
30714;BME280;17465;47.934;33.430;2023-04-30T03:04:30;57332.55;;;-140.43;100.00
30714;BME280;17465;47.934;33.430;2023-04-30T03:06:58;57318.78;;;-140.43;100.00
30714;BME280;17465;47.934;33.430;2023-04-30T03:09:30;57342.08;;;-140.43;100.00
30714;BME280;17465;47.934;33.430;2023-04-30T03:12:01;57333.61;;;-140.43;100.00
30714;BME280;17465;47.934;33.430;2023-04-30T03:14:37;57314.55;;;-140.43;100.00
30714;BME280;17465;47.934;33.430;2023-04-30T03:17:08;57318.78;;;-140.43;100.00
30714;BME280;17465;47.934;33.430;2023-04-30T03:19:38;57305.01;;;-140.43;100.00
30714;BME280;17465;47.934;33.430;2023-04-30T03:25:15;57328.31;;;-140.43;100.00
30714;BME280;17465;47.934;33.430;2023-04-30T03:27:47;57324.07;;;-140.43;100.00
30714;BME280;17465;47.934;33.430;2023-04-30T03:30:32;57324.07;;;-140.43;100.00
30714;BME280;17465;47.934;33.430;2023-04-30T03:37:03;57285.95;;;-140.43;100.00
30714;BME280;17465;47.934;33.430;2023-04-30T03:42:57;57317.72;;;-140.43;100.00
30714;BME280;17465;47.934;33.430;2023-04-30T03:45:31;57303.95;;;-140.43;100.00
30714;BME280;17465;47.934;33.430;2023-04-30T03:50:54;57319.84;;;-140.43;100.00
30714;BME280;17465;47.934;33.430;2023-04-30T03:53:24;57316.66;;;-140.43;100.00
30714;BME280;17465;47.934;33.430;2023-04-30T03:55:55;57313.48;;;-140.43;100.00
30714;BME280;17465;47.934;33.430;2023-04-30T03:58:27;57297.60;;;-140.43;100.00
30714;BME280;17465;47.934;33.430;2023-04-30T04:00:57;57338.90;;;-140.43;100.00
30714;BME280;17465;47.934;33.430;2023-04-30T04:03:28;57316.66;;;-140.43;100.00
30714;BME280;17465;47.934;33.430;2023-04-30T04:05:58;57327.25;;;-140.43;100.00
30714;BME280;17465;47.934;33.430;2023-04-30T04:08:29;57329.37;;;-140.43;100.00
30714;BME280;17465;47.934;33.430;2023-04-30T04:10:59;57295.48;;;-140.43;100.00
30714;BME280;17465;47.934;33.430;2023-04-30T04:13:31;57335.73;;;-140.43;100.00
30714;BME280;17465;47.934;33.430;2023-04-30T04:16:02;57310.31;;;-140.43;100.00
30714;BME280;17465;47.934;33.430;2023-04-30T04:18:32;57325.14;;;-140.43;100.00
30714;BME280;17465;47.934;33.430;2023-04-30T04:21:06;57319.84;;;-140.43;100.00
30714;BME280;17465;47.934;33.430;2023-04-30T04:23:40;57328.31;;;-140.43;100.00
30714;BME280;17465;47.934;33.430;2023-04-30T04:26:19;57313.48;;;-140.43;100.00
30714;BME280;17465;47.934;33.430;2023-04-30T04:31:42;57315.61;;;-140.43;100.00
30714;BME280;17465;47.934;33.430;2023-04-30T04:34:12;57320.90;;;-140.43;100.00
30714;BME280;17465;47.934;33.430;2023-04-30T04:36:48;57320.90;;;-140.43;100.00
30714;BME280;17465;47.934;33.430;2023-04-30T04:39:19;57329.37;;;-140.43;100.00
30714;BME280;17465;47.934;33.430;2023-04-30T04:41:49;57329.37;;;-140.43;100.00
30714;BME280;17465;47.934;33.430;2023-04-30T04:44:19;57321.96;;;-140.43;100.00
30714;BME280;17465;47.934;33.430;2023-04-30T04:46:50;57323.02;;;-140.43;100.00
30714;BME280;17465;47.934;33.430;2023-04-30T04:49:20;57323.02;;;-140.43;100.00
30714;BME280;17465;47.934;33.430;2023-04-30T04:51:51;57323.02;;;-140.43;100.00
30714;BME280;17465;47.934;33.430;2023-04-30T04:54:21;57332.55;;;-140.43;100.00
30714;BME280;17465;47.934;33.430;2023-04-30T04:56:51;57311.37;;;-140.43;100.00
30714;BME280;17465;47.934;33.430;2023-04-30T04:59:22;57327.25;;;-140.43;100.00
30714;BME280;17465;47.934;33.430;2023-04-30T05:01:52;57314.55;;;-140.43;100.00
30714;BME280;17465;47.934;33.430;2023-04-30T05:04:22;57314.55;;;-140.43;100.00
30714;BME280;17465;47.934;33.430;2023-04-30T05:06:52;57323.02;;;-140.43;100.00
30714;BME280;17465;47.934;33.430;2023-04-30T05:09:23;57331.49;;;-140.43;100.00
30714;BME280;17465;47.934;33.430;2023-04-30T05:11:53;57331.49;;;-140.43;100.00
30714;BME280;17465;47.934;33.430;2023-04-30T05:14:26;57303.95;;;-140.43;100.00
30714;BME280;17465;47.934;33.430;2023-04-30T05:17:08;57324.07;;;-140.43;100.00
30714;BME280;17465;47.934;33.430;2023-04-30T05:19:34;57323.02;;;-140.43;100.00
30714;BME280;17465;47.934;33.430;2023-04-30T05:22:05;57316.66;;;-140.43;100.00
30714;BME280;17465;47.934;33.430;2023-04-30T05:24:35;57307.13;;;-140.43;100.00
30714;BME280;17465;47.934;33.430;2023-04-30T05:27:11;57326.20;;;-140.43;100.00
30714;BME280;17465;47.934;33.430;2023-04-30T05:29:40;57321.96;;;-140.43;100.00
30714;BME280;17465;47.934;33.430;2023-04-30T05:32:13;57301.84;;;-140.43;100.00
30714;BME280;17465;47.934;33.430;2023-04-30T05:34:44;57324.07;;;-140.43;100.00
30714;BME280;17465;47.934;33.430;2023-04-30T05:37:15;57321.96;;;-140.43;100.00
30714;BME280;17465;47.934;33.430;2023-04-30T05:39:48;57334.67;;;-140.43;100.00
30714;BME280;17465;47.934;33.430;2023-04-30T05:42:19;57316.66;;;-140.43;100.00
30714;BME280;17465;47.934;33.430;2023-04-30T05:44:59;57292.30;;;-140.43;100.00
30714;BME280;17465;47.934;33.430;2023-04-30T05:47:34;57313.48;;;-140.43;100.00
30714;BME280;17465;47.934;33.430;2023-04-30T05:50:01;57320.90;;;-140.43;100.00
30714;BME280;17465;47.934;33.430;2023-04-30T05:52:34;57295.48;;;-140.43;100.00
30714;BME280;17465;47.934;33.430;2023-04-30T05:55:05;57332.55;;;-140.43;100.00
30714;BME280;17465;47.934;33.430;2023-04-30T05:57:36;57311.37;;;-140.43;100.00
30714;BME280;17465;47.934;33.430;2023-04-30T06:00:09;57299.72;;;-140.43;100.00
30714;BME280;17465;47.934;33.430;2023-04-30T06:02:43;57314.55;;;-140.43;100.00
30714;BME280;17465;47.934;33.430;2023-04-30T06:05:13;57309.25;;;-140.43;100.00
30714;BME280;17465;47.934;33.430;2023-04-30T06:07:48;57323.02;;;-140.43;100.00
30714;BME280;17465;47.934;33.430;2023-04-30T06:10:18;57323.02;;;-140.43;100.00
30714;BME280;17465;47.934;33.430;2023-04-30T06:12:51;57297.60;;;-140.43;100.00
30714;BME280;17465;47.934;33.430;2023-04-30T06:15:24;57325.14;;;-140.43;100.00
30714;BME280;17465;47.934;33.430;2023-04-30T06:17:58;57310.31;;;-140.43;100.00
30714;BME280;17465;47.934;33.430;2023-04-30T06:20:30;57310.31;;;-140.43;100.00
30714;BME280;17465;47.934;33.430;2023-04-30T06:23:02;57301.84;;;-140.43;100.00
30714;BME280;17465;47.934;33.430;2023-04-30T06:25:32;57314.55;;;-140.43;100.00
30714;BME280;17465;47.934;33.430;2023-04-30T06:28:03;57311.37;;;-140.43;100.00
30714;BME280;17465;47.934;33.430;2023-04-30T06:30:33;57317.72;;;-140.43;100.00
30714;BME280;17465;47.934;33.430;2023-04-30T06:33:04;57307.13;;;-140.43;100.00
30714;BME280;17465;47.934;33.430;2023-04-30T06:35:34;57318.78;;;-140.43;100.00
30714;BME280;17465;47.934;33.430;2023-04-30T06:38:04;57312.43;;;-140.43;100.00
30714;BME280;17465;47.934;33.430;2023-04-30T06:40:35;57302.89;;;-140.43;100.00
30714;BME280;17465;47.934;33.430;2023-04-30T06:43:06;57308.19;;;-140.43;100.00
30714;BME280;17465;47.934;33.430;2023-04-30T06:45:37;57308.19;;;-140.43;100.00
30714;BME280;17465;47.934;33.430;2023-04-30T06:48:15;57321.96;;;-140.43;100.00
30714;BME280;17465;47.934;33.430;2023-04-30T06:50:45;57305.01;;;-140.43;100.00
30714;BME280;17465;47.934;33.430;2023-04-30T06:53:15;57337.84;;;-140.43;100.00
30714;BME280;17465;47.934;33.430;2023-04-30T06:55:46;57300.78;;;-140.43;100.00
30714;BME280;17465;47.934;33.430;2023-04-30T06:58:16;57317.72;;;-140.43;100.00
30714;BME280;17465;47.934;33.430;2023-04-30T07:00:48;57330.43;;;-140.43;100.00
30714;BME280;17465;47.934;33.430;2023-04-30T07:03:18;57321.96;;;-140.43;100.00
30714;BME280;17465;47.934;33.430;2023-04-30T07:05:49;57295.48;;;-140.43;100.00
30714;BME280;17465;47.934;33.430;2023-04-30T07:08:20;57326.20;;;-140.43;100.00
30714;BME280;17465;47.934;33.430;2023-04-30T07:10:55;57312.43;;;-140.43;100.00
30714;BME280;17465;47.934;33.430;2023-04-30T07:13:25;57312.43;;;-140.43;100.00
30714;BME280;17465;47.934;33.430;2023-04-30T07:15:55;57323.02;;;-140.43;100.00
30714;BME280;17465;47.934;33.430;2023-04-30T07:18:26;57314.55;;;-140.43;99.82
30714;BME280;17465;47.934;33.430;2023-04-30T07:20:56;57323.02;;;-140.43;100.00
30714;BME280;17465;47.934;33.430;2023-04-30T07:23:26;57308.19;;;-140.43;100.00
30714;BME280;17465;47.934;33.430;2023-04-30T07:25:58;57309.25;;;-140.43;100.00
30714;BME280;17465;47.934;33.430;2023-04-30T07:28:29;57336.79;;;-140.43;98.84
30714;BME280;17465;47.934;33.430;2023-04-30T07:31:02;57310.31;;;-140.43;99.49
30714;BME280;17465;47.934;33.430;2023-04-30T07:33:33;57314.55;;;-140.43;98.76
30714;BME280;17465;47.934;33.430;2023-04-30T07:36:07;57282.77;;;-140.43;98.90
30714;BME280;17465;47.934;33.430;2023-04-30T07:38:38;57336.79;;;-140.43;99.90
30714;BME280;17465;47.934;33.430;2023-04-30T07:41:11;57319.84;;;-140.43;99.17
30714;BME280;17465;47.934;33.430;2023-04-30T07:43:49;57303.95;;;-140.43;100.00
30714;BME280;17465;47.934;33.430;2023-04-30T07:46:18;57298.66;;;-140.43;99.08
30714;BME280;17465;47.934;33.430;2023-04-30T07:48:54;57308.19;;;-140.43;99.30
30714;BME280;17465;47.934;33.430;2023-04-30T07:51:25;57332.55;;;-140.43;97.82
30714;BME280;17465;47.934;33.430;2023-04-30T07:53:57;57309.25;;;-140.43;100.00
30714;BME280;17465;47.934;33.430;2023-04-30T07:56:31;57329.37;;;-140.43;98.71
30714;BME280;17465;47.934;33.430;2023-04-30T07:59:04;57303.95;;;-140.43;97.30
30714;BME280;17465;47.934;33.430;2023-04-30T08:01:36;57301.84;;;-140.43;97.07
30714;BME280;17465;47.934;33.430;2023-04-30T08:04:12;57319.84;;;-140.43;97.63
30714;BME280;17465;47.934;33.430;2023-04-30T08:06:39;57306.07;;;-140.43;97.01
30714;BME280;17465;47.934;33.430;2023-04-30T08:09:10;57329.37;;;-140.43;98.84
30714;BME280;17465;47.934;33.430;2023-04-30T08:11:43;57329.37;;;-140.43;98.84
30714;BME280;17465;47.934;33.430;2023-04-30T08:17:05;57336.79;;;-140.43;100.00
30714;BME280;17465;47.934;33.430;2023-04-30T08:19:35;57298.66;;;-140.43;99.98
30714;BME280;17465;47.934;33.430;2023-04-30T08:22:07;57298.66;;;-140.43;100.00
30714;BME280;17465;47.934;33.430;2023-04-30T08:24:38;57310.31;;;-140.43;100.00
30714;BME280;17465;47.934;33.430;2023-04-30T08:27:09;57308.19;;;-140.43;100.00
30714;BME280;17465;47.934;33.430;2023-04-30T08:29:39;57319.84;;;-140.43;100.00
30714;BME280;17465;47.934;33.430;2023-04-30T08:32:12;57328.31;;;-140.43;100.00
30714;BME280;17465;47.934;33.430;2023-04-30T08:34:43;57312.43;;;-140.43;100.00
30714;BME280;17465;47.934;33.430;2023-04-30T08:37:14;57326.20;;;-140.43;100.00
30714;BME280;17465;47.934;33.430;2023-04-30T08:39:44;57299.72;;;-140.43;100.00
30714;BME280;17465;47.934;33.430;2023-04-30T08:42:19;57299.72;;;-140.43;100.00
30714;BME280;17465;47.934;33.430;2023-04-30T08:44:54;57321.96;;;-140.43;100.00
30714;BME280;17465;47.934;33.430;2023-04-30T08:47:29;57328.31;;;-140.43;100.00
30714;BME280;17465;47.934;33.430;2023-04-30T08:50:04;57330.43;;;-140.43;100.00
30714;BME280;17465;47.934;33.430;2023-04-30T08:52:39;57334.67;;;-140.43;100.00
30714;BME280;17465;47.934;33.430;2023-04-30T08:55:11;57333.61;;;-140.43;100.00
30714;BME280;17465;47.934;33.430;2023-04-30T08:57:55;57308.19;;;-140.43;100.00
30714;BME280;17465;47.934;33.430;2023-04-30T09:00:21;57339.96;;;-140.43;100.00
30714;BME280;17465;47.934;33.430;2023-04-30T09:02:53;57307.13;;;-140.43;100.00
30714;BME280;17465;47.934;33.430;2023-04-30T09:05:24;57338.90;;;-140.43;100.00
30714;BME280;17465;47.934;33.430;2023-04-30T09:08:00;57309.25;;;-140.43;100.00
30714;BME280;17465;47.934;33.430;2023-04-30T09:10:36;57326.20;;;-140.43;98.50
30714;BME280;17465;47.934;33.430;2023-04-30T09:16:14;57321.96;;;-140.43;96.95
30714;BME280;17465;47.934;33.430;2023-04-30T09:18:43;57321.96;;;-140.43;96.95
30714;BME280;17465;47.934;33.430;2023-04-30T09:21:14;57310.31;;;-140.43;95.82
30714;BME280;17465;47.934;33.430;2023-04-30T09:26:50;57348.43;;;-140.43;98.48
30714;BME280;17465;47.934;33.430;2023-04-30T09:29:21;57348.43;;;-140.43;98.48
30714;BME280;17465;47.934;33.430;2023-04-30T09:32:11;57327.25;;;-140.43;97.63
30714;BME280;17465;47.934;33.430;2023-04-30T09:34:38;57306.07;;;-140.43;98.95
30714;BME280;17465;47.934;33.430;2023-04-30T09:37:20;57306.07;;;-140.43;98.95
30714;BME280;17465;47.934;33.430;2023-04-30T09:39:54;57332.55;;;-140.43;97.47
30714;BME280;17465;47.934;33.430;2023-04-30T09:42:41;57312.43;;;-140.43;96.92
30714;BME280;17465;47.934;33.430;2023-04-30T09:45:09;57314.55;;;-140.43;96.81
30714;BME280;17465;47.934;33.430;2023-04-30T09:47:40;57308.19;;;-140.43;96.97
30714;BME280;17465;47.934;33.430;2023-04-30T09:50:12;57311.37;;;-140.43;98.34
30714;BME280;17465;47.934;33.430;2023-04-30T09:55:34;57320.90;;;-140.43;98.27
30714;BME280;17465;47.934;33.430;2023-04-30T09:58:09;57312.43;;;-140.43;100.00
30714;BME280;17465;47.934;33.430;2023-04-30T10:00:46;57278.54;;;-140.43;97.98
30714;BME280;17465;47.934;33.430;2023-04-30T10:03:22;57310.31;;;-140.43;100.00
30714;BME280;17465;47.934;33.430;2023-04-30T10:05:54;57365.38;;;-140.43;100.00
30714;BME280;17465;47.934;33.430;2023-04-30T10:08:41;57306.07;;;-140.43;96.47
30714;BME280;17465;47.934;33.430;2023-04-30T10:11:45;57326.20;;;-140.43;96.63
30714;BME280;17465;47.934;33.430;2023-04-30T10:14:21;57318.78;;;-140.43;98.57
30714;BME280;17465;47.934;33.430;2023-04-30T10:20:03;57321.96;;;-140.43;95.81
30714;BME280;17465;47.934;33.430;2023-04-30T10:22:36;57311.37;;;-140.43;96.02
30714;BME280;17465;47.934;33.430;2023-04-30T10:25:06;57311.37;;;-140.43;96.02
30714;BME280;17465;47.934;33.430;2023-04-30T10:27:38;57317.72;;;-140.43;96.79
30714;BME280;17465;47.934;33.430;2023-04-30T10:30:10;57301.84;;;-140.43;93.91
30714;BME280;17465;47.934;33.430;2023-04-30T10:36:32;57335.73;;;-140.43;95.58
30714;BME280;17465;47.934;33.430;2023-04-30T10:39:00;57325.14;;;-140.43;96.02
30714;BME280;17465;47.934;33.430;2023-04-30T10:41:31;57309.25;;;-140.43;95.19
30714;BME280;17465;47.934;33.430;2023-04-30T10:44:07;57309.25;;;-140.43;95.19
30714;BME280;17465;47.934;33.430;2023-04-30T10:47:08;57316.66;;;-140.43;92.60
30714;BME280;17465;47.934;33.430;2023-04-30T10:49:55;57308.19;;;-140.43;93.25
30714;BME280;17465;47.934;33.430;2023-04-30T10:52:30;57316.66;;;-140.43;95.27
30714;BME280;17465;47.934;33.430;2023-04-30T10:55:15;57319.84;;;-140.43;94.49
30714;BME280;17465;47.934;33.430;2023-04-30T10:57:45;57319.84;;;-140.43;94.49
30714;BME280;17465;47.934;33.430;2023-04-30T11:00:23;57320.90;;;-140.43;94.07
30714;BME280;17465;47.934;33.430;2023-04-30T11:03:01;57314.55;;;-140.43;94.23
30714;BME280;17465;47.934;33.430;2023-04-30T11:05:38;57319.84;;;-140.43;93.96
30714;BME280;17465;47.934;33.430;2023-04-30T11:08:20;57319.84;;;-140.43;94.97
30714;BME280;17465;47.934;33.430;2023-04-30T11:11:00;57315.61;;;-140.43;95.22
30714;BME280;17465;47.934;33.430;2023-04-30T11:14:01;57310.31;;;-140.43;94.54
30714;BME280;17465;47.934;33.430;2023-04-30T11:16:32;57313.48;;;-140.43;93.99
30714;BME280;17465;47.934;33.430;2023-04-30T11:19:08;57335.73;;;-140.43;95.66
30714;BME280;17465;47.934;33.430;2023-04-30T11:25:04;57318.78;;;-140.43;94.55
30714;BME280;17465;47.934;33.430;2023-04-30T11:27:42;57333.61;;;-140.43;95.79
30714;BME280;17465;47.934;33.430;2023-04-30T11:30:15;57333.61;;;-140.43;95.79
30714;BME280;17465;47.934;33.430;2023-04-30T11:32:49;57324.07;;;-140.43;94.36
30714;BME280;17465;47.934;33.430;2023-04-30T11:35:23;57318.78;;;-140.43;96.35
30714;BME280;17465;47.934;33.430;2023-04-30T11:37:54;57329.37;;;-140.43;95.86
30714;BME280;17465;47.934;33.430;2023-04-30T11:40:33;57330.43;;;-140.43;96.07
30714;BME280;17465;47.934;33.430;2023-04-30T11:42:58;57331.49;;;-140.43;96.65
30714;BME280;17465;47.934;33.430;2023-04-30T11:45:29;57345.26;;;-140.43;96.27
30714;BME280;17465;47.934;33.430;2023-04-30T11:47:59;57295.48;;;-140.43;98.01
30714;BME280;17465;47.934;33.430;2023-04-30T11:50:32;57320.90;;;-140.43;98.24
30714;BME280;17465;47.934;33.430;2023-04-30T11:53:04;57347.38;;;-140.43;98.27
30714;BME280;17465;47.934;33.430;2023-04-30T11:55:39;57324.07;;;-140.43;98.07
30714;BME280;17465;47.934;33.430;2023-04-30T11:58:11;57324.07;;;-140.43;98.07
30714;BME280;17465;47.934;33.430;2023-04-30T12:00:42;57314.55;;;-140.43;99.30
30714;BME280;17465;47.934;33.430;2023-04-30T12:03:18;57335.73;;;-140.43;98.71
30714;BME280;17465;47.934;33.430;2023-04-30T12:05:50;57305.01;;;-140.43;97.83
30714;BME280;17465;47.934;33.430;2023-04-30T12:08:28;57323.02;;;-140.43;97.42
30714;BME280;17465;47.934;33.430;2023-04-30T12:11:03;57323.02;;;-140.43;100.00
30714;BME280;17465;47.934;33.430;2023-04-30T12:13:36;57310.31;;;-140.43;98.18
30714;BME280;17465;47.934;33.430;2023-04-30T12:16:10;57310.31;;;-140.43;98.18
30714;BME280;17465;47.934;33.430;2023-04-30T12:18:50;57339.96;;;-140.43;98.10
30714;BME280;17465;47.934;33.430;2023-04-30T12:21:22;57351.61;;;-140.43;97.93
30714;BME280;17465;47.934;33.430;2023-04-30T12:23:53;57327.25;;;-140.43;97.48
30714;BME280;17465;47.934;33.430;2023-04-30T12:29:30;57298.66;;;-140.43;100.00
30714;BME280;17465;47.934;33.430;2023-04-30T12:32:03;57338.90;;;-140.43;100.00
30714;BME280;17465;47.934;33.430;2023-04-30T12:34:59;57320.90;;;-140.43;100.00
30714;BME280;17465;47.934;33.430;2023-04-30T12:37:42;57320.90;;;-140.43;100.00
30714;BME280;17465;47.934;33.430;2023-04-30T12:40:25;57334.67;;;-140.43;100.00
30714;BME280;17465;47.934;33.430;2023-04-30T12:43:18;57318.78;;;-140.43;100.00
30714;BME280;17465;47.934;33.430;2023-04-30T12:45:45;57348.43;;;-140.43;100.00
30714;BME280;17465;47.934;33.430;2023-04-30T12:48:17;57330.43;;;-140.43;99.59
30714;BME280;17465;47.934;33.430;2023-04-30T12:51:08;57339.96;;;-140.43;99.35
30714;BME280;17465;47.934;33.430;2023-04-30T12:53:51;57309.25;;;-140.43;98.62
30714;BME280;17465;47.934;33.430;2023-04-30T12:56:31;57309.25;;;-140.43;98.62
30714;BME280;17465;47.934;33.430;2023-04-30T12:59:01;57323.02;;;-140.43;96.45
30714;BME280;17465;47.934;33.430;2023-04-30T13:01:32;57312.43;;;-140.43;96.10
30714;BME280;17465;47.934;33.430;2023-04-30T13:04:04;57320.90;;;-140.43;95.42
30714;BME280;17465;47.934;33.430;2023-04-30T13:06:34;57303.95;;;-140.43;94.48
30714;BME280;17465;47.934;33.430;2023-04-30T13:09:06;57314.55;;;-140.43;95.30
30714;BME280;17465;47.934;33.430;2023-04-30T13:11:37;57339.96;;;-140.43;95.12
30714;BME280;17465;47.934;33.430;2023-04-30T13:14:07;57313.48;;;-140.43;92.48
30714;BME280;17465;47.934;33.430;2023-04-30T13:16:38;57320.90;;;-140.43;94.48
30714;BME280;17465;47.934;33.430;2023-04-30T13:19:14;57317.72;;;-140.43;92.25
30714;BME280;17465;47.934;33.430;2023-04-30T13:21:43;57310.31;;;-140.43;92.30
30714;BME280;17465;47.934;33.430;2023-04-30T13:24:15;57328.31;;;-140.43;92.36
30714;BME280;17465;47.934;33.430;2023-04-30T13:26:52;57324.07;;;-140.43;93.97
30714;BME280;17465;47.934;33.430;2023-04-30T13:29:24;57343.14;;;-140.43;94.50
30714;BME280;17465;47.934;33.430;2023-04-30T13:31:54;57314.55;;;-140.43;94.22
30714;BME280;17465;47.934;33.430;2023-04-30T13:34:26;57338.90;;;-140.43;94.93
30714;BME280;17465;47.934;33.430;2023-04-30T13:36:57;57317.72;;;-140.43;96.52
30714;BME280;17465;47.934;33.430;2023-04-30T13:39:31;57318.78;;;-140.43;95.43
30714;BME280;17465;47.934;33.430;2023-04-30T13:42:06;57323.02;;;-140.43;93.47
30714;BME280;17465;47.934;33.430;2023-04-30T13:44:37;57343.14;;;-140.43;95.83
30714;BME280;17465;47.934;33.430;2023-04-30T13:47:13;57331.49;;;-140.43;96.05
30714;BME280;17465;47.934;33.430;2023-04-30T13:49:49;57318.78;;;-140.43;93.65
30714;BME280;17465;47.934;33.430;2023-04-30T13:54:59;57344.20;;;-140.43;94.20
30714;BME280;17465;47.934;33.430;2023-04-30T13:57:39;57351.61;;;-140.43;95.38
30714;BME280;17465;47.934;33.430;2023-04-30T14:00:10;57326.20;;;-140.43;95.35